sensor_id;sensor_type;location;lat;lon;timestamp;P1;durP1;ratioP1;P2;durP2;ratioP2
39486;SDS011;25173;50.430;18.926;2022-10-13T00:02:39;71.38;;;38.80;;
39486;SDS011;25173;50.430;18.926;2022-10-13T00:05:41;69.03;;;36.92;;
39486;SDS011;25173;50.430;18.926;2022-10-13T00:08:42;59.33;;;31.80;;
39486;SDS011;25173;50.430;18.926;2022-10-13T00:11:43;56.47;;;29.58;;
39486;SDS011;25173;50.430;18.926;2022-10-13T00:14:44;59.28;;;31.67;;
39486;SDS011;25173;50.430;18.926;2022-10-13T00:17:44;87.30;;;52.22;;
39486;SDS011;25173;50.430;18.926;2022-10-13T00:20:46;154.02;;;80.90;;
39486;SDS011;25173;50.430;18.926;2022-10-13T00:23:48;225.02;;;123.20;;
39486;SDS011;25173;50.430;18.926;2022-10-13T00:26:52;184.82;;;101.50;;
39486;SDS011;25173;50.430;18.926;2022-10-13T00:29:53;171.45;;;92.78;;
39486;SDS011;25173;50.430;18.926;2022-10-13T00:32:53;138.63;;;71.97;;
39486;SDS011;25173;50.430;18.926;2022-10-13T00:35:54;124.78;;;70.95;;
39486;SDS011;25173;50.430;18.926;2022-10-13T00:38:55;127.43;;;66.90;;
39486;SDS011;25173;50.430;18.926;2022-10-13T00:41:56;89.75;;;47.88;;
39486;SDS011;25173;50.430;18.926;2022-10-13T00:48:01;186.60;;;99.10;;
39486;SDS011;25173;50.430;18.926;2022-10-13T00:51:02;186.38;;;101.25;;
39486;SDS011;25173;50.430;18.926;2022-10-13T00:54:03;131.55;;;68.82;;
39486;SDS011;25173;50.430;18.926;2022-10-13T00:57:06;74.60;;;41.78;;
39486;SDS011;25173;50.430;18.926;2022-10-13T01:00:09;107.55;;;56.25;;
39486;SDS011;25173;50.430;18.926;2022-10-13T01:03:10;140.95;;;73.93;;
39486;SDS011;25173;50.430;18.926;2022-10-13T01:06:11;165.75;;;88.35;;
39486;SDS011;25173;50.430;18.926;2022-10-13T01:09:12;198.90;;;106.18;;
39486;SDS011;25173;50.430;18.926;2022-10-13T01:15:41;171.13;;;89.22;;
39486;SDS011;25173;50.430;18.926;2022-10-13T01:19:06;175.82;;;93.97;;
39486;SDS011;25173;50.430;18.926;2022-10-13T01:22:38;189.38;;;97.53;;
39486;SDS011;25173;50.430;18.926;2022-10-13T01:36:19;70.43;;;38.33;;
39486;SDS011;25173;50.430;18.926;2022-10-13T01:39:39;114.28;;;60.22;;
39486;SDS011;25173;50.430;18.926;2022-10-13T01:42:55;116.13;;;59.00;;
39486;SDS011;25173;50.430;18.926;2022-10-13T01:49:06;56.00;;;28.33;;
39486;SDS011;25173;50.430;18.926;2022-10-13T01:52:14;54.22;;;30.77;;
39486;SDS011;25173;50.430;18.926;2022-10-13T01:55:16;111.90;;;58.28;;
39486;SDS011;25173;50.430;18.926;2022-10-13T01:58:17;123.35;;;63.85;;
39486;SDS011;25173;50.430;18.926;2022-10-13T02:07:48;64.60;;;33.58;;
39486;SDS011;25173;50.430;18.926;2022-10-13T02:11:16;86.32;;;46.40;;
39486;SDS011;25173;50.430;18.926;2022-10-13T02:14:20;49.95;;;26.73;;
39486;SDS011;25173;50.430;18.926;2022-10-13T02:17:24;48.30;;;29.63;;
39486;SDS011;25173;50.430;18.926;2022-10-13T02:20:26;59.75;;;32.25;;
39486;SDS011;25173;50.430;18.926;2022-10-13T02:23:28;88.38;;;45.03;;
39486;SDS011;25173;50.430;18.926;2022-10-13T02:26:29;73.78;;;37.83;;
39486;SDS011;25173;50.430;18.926;2022-10-13T02:29:47;67.05;;;33.47;;
39486;SDS011;25173;50.430;18.926;2022-10-13T02:32:52;79.45;;;41.88;;
39486;SDS011;25173;50.430;18.926;2022-10-13T02:35:53;102.20;;;51.15;;
39486;SDS011;25173;50.430;18.926;2022-10-13T02:38:54;116.88;;;62.08;;
39486;SDS011;25173;50.430;18.926;2022-10-13T02:41:54;139.23;;;70.60;;
39486;SDS011;25173;50.430;18.926;2022-10-13T02:44:55;145.73;;;72.35;;
39486;SDS011;25173;50.430;18.926;2022-10-13T02:47:55;141.95;;;72.95;;
39486;SDS011;25173;50.430;18.926;2022-10-13T02:50:57;147.52;;;78.18;;
39486;SDS011;25173;50.430;18.926;2022-10-13T02:53:57;151.10;;;81.93;;
39486;SDS011;25173;50.430;18.926;2022-10-13T02:56:58;136.55;;;72.82;;
39486;SDS011;25173;50.430;18.926;2022-10-13T02:59:58;140.30;;;73.03;;
39486;SDS011;25173;50.430;18.926;2022-10-13T03:03:01;129.00;;;67.18;;
39486;SDS011;25173;50.430;18.926;2022-10-13T03:06:02;121.45;;;62.78;;
39486;SDS011;25173;50.430;18.926;2022-10-13T03:09:03;118.78;;;62.17;;
39486;SDS011;25173;50.430;18.926;2022-10-13T03:12:04;67.80;;;36.88;;
39486;SDS011;25173;50.430;18.926;2022-10-13T03:15:05;104.85;;;53.30;;
39486;SDS011;25173;50.430;18.926;2022-10-13T03:18:06;109.03;;;58.03;;
39486;SDS011;25173;50.430;18.926;2022-10-13T03:21:06;105.85;;;55.83;;
39486;SDS011;25173;50.430;18.926;2022-10-13T03:27:13;115.15;;;60.45;;
39486;SDS011;25173;50.430;18.926;2022-10-13T03:30:13;110.65;;;64.47;;
39486;SDS011;25173;50.430;18.926;2022-10-13T03:33:14;130.40;;;73.22;;
39486;SDS011;25173;50.430;18.926;2022-10-13T03:36:15;124.57;;;70.72;;
39486;SDS011;25173;50.430;18.926;2022-10-13T03:39:16;129.38;;;67.85;;
39486;SDS011;25173;50.430;18.926;2022-10-13T03:42:16;116.40;;;66.93;;
39486;SDS011;25173;50.430;18.926;2022-10-13T03:45:17;121.35;;;66.57;;
39486;SDS011;25173;50.430;18.926;2022-10-13T03:48:18;121.45;;;65.25;;
39486;SDS011;25173;50.430;18.926;2022-10-13T03:51:19;142.43;;;74.35;;
39486;SDS011;25173;50.430;18.926;2022-10-13T03:54:22;135.25;;;69.55;;
39486;SDS011;25173;50.430;18.926;2022-10-13T03:57:26;138.55;;;77.68;;
39486;SDS011;25173;50.430;18.926;2022-10-13T04:00:27;148.57;;;79.03;;
39486;SDS011;25173;50.430;18.926;2022-10-13T04:03:27;138.93;;;73.90;;
39486;SDS011;25173;50.430;18.926;2022-10-13T04:06:28;140.95;;;70.70;;
39486;SDS011;25173;50.430;18.926;2022-10-13T04:09:30;116.88;;;65.28;;
39486;SDS011;25173;50.430;18.926;2022-10-13T04:12:30;101.18;;;54.20;;
39486;SDS011;25173;50.430;18.926;2022-10-13T04:15:35;73.25;;;37.45;;
39486;SDS011;25173;50.430;18.926;2022-10-13T04:18:36;69.72;;;35.25;;
39486;SDS011;25173;50.430;18.926;2022-10-13T04:21:37;68.45;;;38.55;;
39486;SDS011;25173;50.430;18.926;2022-10-13T04:24:38;67.72;;;35.45;;
39486;SDS011;25173;50.430;18.926;2022-10-13T04:27:39;90.72;;;48.53;;
39486;SDS011;25173;50.430;18.926;2022-10-13T04:30:39;78.68;;;40.10;;
39486;SDS011;25173;50.430;18.926;2022-10-13T04:33:40;104.53;;;55.50;;
39486;SDS011;25173;50.430;18.926;2022-10-13T04:36:41;106.53;;;55.85;;
39486;SDS011;25173;50.430;18.926;2022-10-13T04:39:41;112.60;;;66.18;;
39486;SDS011;25173;50.430;18.926;2022-10-13T04:42:42;143.82;;;77.85;;
39486;SDS011;25173;50.430;18.926;2022-10-13T04:45:42;150.85;;;83.45;;
39486;SDS011;25173;50.430;18.926;2022-10-13T04:48:43;114.18;;;61.47;;
39486;SDS011;25173;50.430;18.926;2022-10-13T04:51:43;109.25;;;48.95;;
39486;SDS011;25173;50.430;18.926;2022-10-13T04:54:44;95.63;;;51.28;;
39486;SDS011;25173;50.430;18.926;2022-10-13T04:57:45;110.00;;;56.75;;
39486;SDS011;25173;50.430;18.926;2022-10-13T05:00:45;127.72;;;65.25;;
39486;SDS011;25173;50.430;18.926;2022-10-13T05:03:46;120.05;;;59.33;;
39486;SDS011;25173;50.430;18.926;2022-10-13T05:06:50;117.30;;;63.05;;
39486;SDS011;25173;50.430;18.926;2022-10-13T05:09:50;146.30;;;70.53;;
39486;SDS011;25173;50.430;18.926;2022-10-13T05:12:51;162.35;;;74.20;;
39486;SDS011;25173;50.430;18.926;2022-10-13T05:15:52;168.85;;;87.47;;
39486;SDS011;25173;50.430;18.926;2022-10-13T05:18:55;165.60;;;83.25;;
39486;SDS011;25173;50.430;18.926;2022-10-13T05:21:56;159.02;;;81.35;;
39486;SDS011;25173;50.430;18.926;2022-10-13T05:24:56;141.63;;;72.35;;
39486;SDS011;25173;50.430;18.926;2022-10-13T05:27:57;131.98;;;66.30;;
39486;SDS011;25173;50.430;18.926;2022-10-13T05:31:07;132.48;;;65.55;;
39486;SDS011;25173;50.430;18.926;2022-10-13T05:34:18;132.90;;;65.95;;
39486;SDS011;25173;50.430;18.926;2022-10-13T05:37:19;128.90;;;59.33;;
39486;SDS011;25173;50.430;18.926;2022-10-13T05:40:21;129.63;;;64.53;;
39486;SDS011;25173;50.430;18.926;2022-10-13T05:43:26;118.18;;;61.55;;
39486;SDS011;25173;50.430;18.926;2022-10-13T05:46:28;109.55;;;58.90;;
39486;SDS011;25173;50.430;18.926;2022-10-13T05:49:29;109.57;;;57.72;;
39486;SDS011;25173;50.430;18.926;2022-10-13T05:52:30;119.85;;;58.85;;
39486;SDS011;25173;50.430;18.926;2022-10-13T05:55:34;123.55;;;59.63;;
39486;SDS011;25173;50.430;18.926;2022-10-13T05:58:41;123.30;;;60.55;;
39486;SDS011;25173;50.430;18.926;2022-10-13T06:01:45;121.95;;;63.45;;
39486;SDS011;25173;50.430;18.926;2022-10-13T06:04:47;113.32;;;60.85;;
39486;SDS011;25173;50.430;18.926;2022-10-13T06:07:50;120.68;;;64.13;;
39486;SDS011;25173;50.430;18.926;2022-10-13T06:10:53;115.03;;;60.40;;
39486;SDS011;25173;50.430;18.926;2022-10-13T06:13:56;114.68;;;60.75;;
39486;SDS011;25173;50.430;18.926;2022-10-13T06:16:56;110.95;;;59.90;;
39486;SDS011;25173;50.430;18.926;2022-10-13T06:19:57;101.18;;;53.33;;
39486;SDS011;25173;50.430;18.926;2022-10-13T06:22:59;99.72;;;51.30;;
39486;SDS011;25173;50.430;18.926;2022-10-13T06:25:59;91.55;;;48.10;;
39486;SDS011;25173;50.430;18.926;2022-10-13T06:29:00;76.78;;;39.55;;
39486;SDS011;25173;50.430;18.926;2022-10-13T06:32:02;70.03;;;39.30;;
39486;SDS011;25173;50.430;18.926;2022-10-13T06:35:03;66.18;;;37.25;;
39486;SDS011;25173;50.430;18.926;2022-10-13T06:38:04;44.95;;;26.33;;
39486;SDS011;25173;50.430;18.926;2022-10-13T06:41:05;60.83;;;33.10;;
39486;SDS011;25173;50.430;18.926;2022-10-13T06:44:09;46.47;;;28.50;;
39486;SDS011;25173;50.430;18.926;2022-10-13T06:47:10;54.80;;;29.42;;
39486;SDS011;25173;50.430;18.926;2022-10-13T06:50:11;46.08;;;27.15;;
39486;SDS011;25173;50.430;18.926;2022-10-13T06:53:11;51.13;;;30.35;;
39486;SDS011;25173;50.430;18.926;2022-10-13T06:56:12;55.17;;;31.48;;
39486;SDS011;25173;50.430;18.926;2022-10-13T06:59:13;49.78;;;30.23;;
39486;SDS011;25173;50.430;18.926;2022-10-13T07:02:17;55.00;;;32.38;;
39486;SDS011;25173;50.430;18.926;2022-10-13T07:05:18;45.65;;;26.67;;
39486;SDS011;25173;50.430;18.926;2022-10-13T07:08:19;38.92;;;22.00;;
39486;SDS011;25173;50.430;18.926;2022-10-13T07:11:20;41.38;;;21.90;;
39486;SDS011;25173;50.430;18.926;2022-10-13T07:14:24;34.30;;;19.80;;
39486;SDS011;25173;50.430;18.926;2022-10-13T07:17:25;33.90;;;19.25;;
39486;SDS011;25173;50.430;18.926;2022-10-13T07:20:26;33.53;;;20.05;;
39486;SDS011;25173;50.430;18.926;2022-10-13T07:23:27;33.35;;;23.05;;
39486;SDS011;25173;50.430;18.926;2022-10-13T07:26:29;37.33;;;24.55;;
39486;SDS011;25173;50.430;18.926;2022-10-13T07:29:31;39.67;;;24.83;;
39486;SDS011;25173;50.430;18.926;2022-10-13T07:32:32;37.22;;;22.55;;
39486;SDS011;25173;50.430;18.926;2022-10-13T07:35:38;37.63;;;20.77;;
39486;SDS011;25173;50.430;18.926;2022-10-13T07:38:40;36.20;;;20.48;;
39486;SDS011;25173;50.430;18.926;2022-10-13T07:41:40;30.63;;;19.45;;
39486;SDS011;25173;50.430;18.926;2022-10-13T07:44:41;39.63;;;22.20;;
39486;SDS011;25173;50.430;18.926;2022-10-13T07:47:42;42.83;;;23.77;;
39486;SDS011;25173;50.430;18.926;2022-10-13T07:50:42;34.58;;;19.20;;
39486;SDS011;25173;50.430;18.926;2022-10-13T07:53:43;37.28;;;19.52;;
39486;SDS011;25173;50.430;18.926;2022-10-13T07:56:45;31.85;;;17.45;;
39486;SDS011;25173;50.430;18.926;2022-10-13T07:59:46;33.97;;;19.88;;
39486;SDS011;25173;50.430;18.926;2022-10-13T08:02:49;30.92;;;19.13;;
39486;SDS011;25173;50.430;18.926;2022-10-13T08:05:50;33.78;;;19.90;;
39486;SDS011;25173;50.430;18.926;2022-10-13T08:08:51;35.13;;;19.00;;
39486;SDS011;25173;50.430;18.926;2022-10-13T08:11:52;36.60;;;18.42;;
39486;SDS011;25173;50.430;18.926;2022-10-13T08:14:53;34.70;;;19.08;;
39486;SDS011;25173;50.430;18.926;2022-10-13T08:17:53;35.25;;;18.80;;
39486;SDS011;25173;50.430;18.926;2022-10-13T08:20:58;37.50;;;19.40;;
39486;SDS011;25173;50.430;18.926;2022-10-13T08:24:00;35.17;;;20.58;;
39486;SDS011;25173;50.430;18.926;2022-10-13T08:27:01;36.40;;;20.25;;
39486;SDS011;25173;50.430;18.926;2022-10-13T08:30:01;33.90;;;19.95;;
39486;SDS011;25173;50.430;18.926;2022-10-13T08:33:02;29.77;;;18.42;;
39486;SDS011;25173;50.430;18.926;2022-10-13T08:36:03;49.42;;;25.83;;
39486;SDS011;25173;50.430;18.926;2022-10-13T08:39:04;35.78;;;19.63;;
39486;SDS011;25173;50.430;18.926;2022-10-13T08:42:14;31.58;;;18.83;;
39486;SDS011;25173;50.430;18.926;2022-10-13T08:45:19;34.63;;;19.33;;
39486;SDS011;25173;50.430;18.926;2022-10-13T08:48:26;36.67;;;21.27;;
39486;SDS011;25173;50.430;18.926;2022-10-13T08:51:33;32.03;;;20.77;;
39486;SDS011;25173;50.430;18.926;2022-10-13T08:54:34;33.90;;;21.10;;
39486;SDS011;25173;50.430;18.926;2022-10-13T08:57:34;34.03;;;18.98;;
39486;SDS011;25173;50.430;18.926;2022-10-13T09:00:35;38.80;;;22.15;;
39486;SDS011;25173;50.430;18.926;2022-10-13T09:03:47;49.80;;;25.75;;
39486;SDS011;25173;50.430;18.926;2022-10-13T09:07:01;40.50;;;25.45;;
39486;SDS011;25173;50.430;18.926;2022-10-13T09:10:05;41.78;;;24.20;;
39486;SDS011;25173;50.430;18.926;2022-10-13T09:13:07;37.13;;;24.02;;
39486;SDS011;25173;50.430;18.926;2022-10-13T09:16:08;40.00;;;24.00;;
39486;SDS011;25173;50.430;18.926;2022-10-13T09:25:22;32.20;;;22.98;;
39486;SDS011;25173;50.430;18.926;2022-10-13T09:28:26;46.58;;;28.42;;
39486;SDS011;25173;50.430;18.926;2022-10-13T09:31:29;44.33;;;27.67;;
39486;SDS011;25173;50.430;18.926;2022-10-13T09:34:31;35.08;;;22.58;;
39486;SDS011;25173;50.430;18.926;2022-10-13T09:37:31;38.58;;;24.05;;
39486;SDS011;25173;50.430;18.926;2022-10-13T09:40:34;42.72;;;25.15;;
39486;SDS011;25173;50.430;18.926;2022-10-13T09:43:36;35.95;;;24.13;;
39486;SDS011;25173;50.430;18.926;2022-10-13T09:47:01;39.92;;;23.73;;
39486;SDS011;25173;50.430;18.926;2022-10-13T09:50:13;37.25;;;23.20;;
39486;SDS011;25173;50.430;18.926;2022-10-13T09:56:41;47.30;;;25.65;;
39486;SDS011;25173;50.430;18.926;2022-10-13T09:59:49;37.70;;;21.38;;
39486;SDS011;25173;50.430;18.926;2022-10-13T10:06:28;30.08;;;19.25;;
39486;SDS011;25173;50.430;18.926;2022-10-13T10:09:35;34.80;;;18.95;;
39486;SDS011;25173;50.430;18.926;2022-10-13T10:12:40;91.10;;;41.17;;
39486;SDS011;25173;50.430;18.926;2022-10-13T10:16:02;39.42;;;24.25;;
39486;SDS011;25173;50.430;18.926;2022-10-13T10:19:16;28.45;;;16.98;;
39486;SDS011;25173;50.430;18.926;2022-10-13T10:22:29;30.15;;;17.75;;
39486;SDS011;25173;50.430;18.926;2022-10-13T10:25:37;27.92;;;17.73;;
39486;SDS011;25173;50.430;18.926;2022-10-13T10:42:02;36.53;;;19.33;;
39486;SDS011;25173;50.430;18.926;2022-10-13T10:45:13;43.78;;;18.48;;
39486;SDS011;25173;50.430;18.926;2022-10-13T10:48:21;36.60;;;18.77;;
39486;SDS011;25173;50.430;18.926;2022-10-13T10:51:25;39.42;;;18.02;;
39486;SDS011;25173;50.430;18.926;2022-10-13T10:57:49;29.27;;;16.55;;
39486;SDS011;25173;50.430;18.926;2022-10-13T11:01:26;32.45;;;15.10;;
39486;SDS011;25173;50.430;18.926;2022-10-13T11:04:35;25.55;;;15.02;;
39486;SDS011;25173;50.430;18.926;2022-10-13T11:10:43;23.83;;;15.13;;
39486;SDS011;25173;50.430;18.926;2022-10-13T11:17:08;20.67;;;12.45;;
39486;SDS011;25173;50.430;18.926;2022-10-13T11:29:50;21.80;;;11.52;;
39486;SDS011;25173;50.430;18.926;2022-10-13T11:32:48;19.73;;;10.35;;
39486;SDS011;25173;50.430;18.926;2022-10-13T11:35:54;24.10;;;9.02;;
39486;SDS011;25173;50.430;18.926;2022-10-13T11:39:05;17.52;;;10.45;;
39486;SDS011;25173;50.430;18.926;2022-10-13T11:49:31;17.75;;;9.60;;
39486;SDS011;25173;50.430;18.926;2022-10-13T11:56:01;15.90;;;9.68;;
39486;SDS011;25173;50.430;18.926;2022-10-13T11:59:01;14.85;;;9.25;;
39486;SDS011;25173;50.430;18.926;2022-10-13T12:08:20;20.10;;;8.95;;
39486;SDS011;25173;50.430;18.926;2022-10-13T12:11:23;12.38;;;7.15;;
39486;SDS011;25173;50.430;18.926;2022-10-13T12:14:28;14.63;;;7.28;;
39486;SDS011;25173;50.430;18.926;2022-10-13T12:17:32;13.15;;;6.97;;
39486;SDS011;25173;50.430;18.926;2022-10-13T12:20:38;13.32;;;7.68;;
39486;SDS011;25173;50.430;18.926;2022-10-13T12:23:38;10.45;;;6.25;;
39486;SDS011;25173;50.430;18.926;2022-10-13T12:26:40;10.63;;;6.07;;
39486;SDS011;25173;50.430;18.926;2022-10-13T12:29:40;19.00;;;8.63;;
39486;SDS011;25173;50.430;18.926;2022-10-13T12:32:46;13.25;;;6.88;;
39486;SDS011;25173;50.430;18.926;2022-10-13T12:35:49;19.55;;;7.38;;
39486;SDS011;25173;50.430;18.926;2022-10-13T12:38:53;10.60;;;6.43;;
39486;SDS011;25173;50.430;18.926;2022-10-13T12:41:56;16.55;;;7.00;;
39486;SDS011;25173;50.430;18.926;2022-10-13T12:44:59;9.38;;;5.38;;
39486;SDS011;25173;50.430;18.926;2022-10-13T12:48:01;14.27;;;6.95;;
39486;SDS011;25173;50.430;18.926;2022-10-13T12:51:15;22.10;;;8.20;;
39486;SDS011;25173;50.430;18.926;2022-10-13T12:54:23;8.30;;;5.78;;
39486;SDS011;25173;50.430;18.926;2022-10-13T13:00:36;15.23;;;6.03;;
39486;SDS011;25173;50.430;18.926;2022-10-13T13:03:39;12.35;;;7.00;;
39486;SDS011;25173;50.430;18.926;2022-10-13T13:06:52;11.15;;;6.78;;
39486;SDS011;25173;50.430;18.926;2022-10-13T13:13:12;24.80;;;9.55;;
39486;SDS011;25173;50.430;18.926;2022-10-13T13:16:18;23.38;;;8.32;;
39486;SDS011;25173;50.430;18.926;2022-10-13T13:19:21;16.35;;;9.73;;
39486;SDS011;25173;50.430;18.926;2022-10-13T13:22:22;19.73;;;8.57;;
39486;SDS011;25173;50.430;18.926;2022-10-13T13:25:22;22.05;;;8.90;;
39486;SDS011;25173;50.430;18.926;2022-10-13T13:28:27;20.50;;;10.43;;
39486;SDS011;25173;50.430;18.926;2022-10-13T13:31:28;17.20;;;10.85;;
39486;SDS011;25173;50.430;18.926;2022-10-13T13:34:29;19.10;;;13.68;;
39486;SDS011;25173;50.430;18.926;2022-10-13T13:37:34;21.65;;;12.82;;
39486;SDS011;25173;50.430;18.926;2022-10-13T13:40:37;16.48;;;11.52;;
39486;SDS011;25173;50.430;18.926;2022-10-13T13:43:38;21.48;;;12.10;;
39486;SDS011;25173;50.430;18.926;2022-10-13T13:46:40;29.17;;;12.25;;
39486;SDS011;25173;50.430;18.926;2022-10-13T13:49:41;24.80;;;13.82;;
39486;SDS011;25173;50.430;18.926;2022-10-13T13:52:42;21.33;;;13.20;;
39486;SDS011;25173;50.430;18.926;2022-10-13T13:55:43;18.00;;;11.98;;
39486;SDS011;25173;50.430;18.926;2022-10-13T13:58:49;29.25;;;13.25;;
39486;SDS011;25173;50.430;18.926;2022-10-13T14:01:50;23.73;;;14.73;;
39486;SDS011;25173;50.430;18.926;2022-10-13T14:04:55;27.65;;;16.13;;
39486;SDS011;25173;50.430;18.926;2022-10-13T14:07:57;23.77;;;14.00;;
39486;SDS011;25173;50.430;18.926;2022-10-13T14:10:59;25.40;;;13.02;;
39486;SDS011;25173;50.430;18.926;2022-10-13T14:13:59;24.15;;;14.88;;
39486;SDS011;25173;50.430;18.926;2022-10-13T14:17:01;23.10;;;16.10;;
39486;SDS011;25173;50.430;18.926;2022-10-13T14:20:05;26.08;;;15.23;;
39486;SDS011;25173;50.430;18.926;2022-10-13T14:23:10;32.28;;;19.60;;
39486;SDS011;25173;50.430;18.926;2022-10-13T14:26:11;29.20;;;16.25;;
39486;SDS011;25173;50.430;18.926;2022-10-13T14:29:12;31.05;;;17.05;;
39486;SDS011;25173;50.430;18.926;2022-10-13T14:32:12;32.97;;;19.83;;
39486;SDS011;25173;50.430;18.926;2022-10-13T14:35:13;43.28;;;28.17;;
39486;SDS011;25173;50.430;18.926;2022-10-13T14:38:14;38.42;;;27.33;;
39486;SDS011;25173;50.430;18.926;2022-10-13T14:41:14;39.97;;;26.20;;
39486;SDS011;25173;50.430;18.926;2022-10-13T14:44:16;38.70;;;23.35;;
39486;SDS011;25173;50.430;18.926;2022-10-13T14:47:18;32.45;;;19.45;;
39486;SDS011;25173;50.430;18.926;2022-10-13T14:50:19;51.67;;;32.08;;
39486;SDS011;25173;50.430;18.926;2022-10-13T14:53:25;41.30;;;26.75;;
39486;SDS011;25173;50.430;18.926;2022-10-13T14:56:28;43.42;;;29.17;;
39486;SDS011;25173;50.430;18.926;2022-10-13T14:59:30;61.90;;;33.28;;
39486;SDS011;25173;50.430;18.926;2022-10-13T15:02:31;55.95;;;35.03;;
39486;SDS011;25173;50.430;18.926;2022-10-13T15:05:31;45.33;;;31.10;;
39486;SDS011;25173;50.430;18.926;2022-10-13T15:08:32;72.32;;;43.53;;
39486;SDS011;25173;50.430;18.926;2022-10-13T15:11:32;81.95;;;49.17;;
39486;SDS011;25173;50.430;18.926;2022-10-13T15:14:33;76.22;;;44.25;;
39486;SDS011;25173;50.430;18.926;2022-10-13T15:17:34;92.05;;;58.58;;
39486;SDS011;25173;50.430;18.926;2022-10-13T15:20:36;73.63;;;47.75;;
39486;SDS011;25173;50.430;18.926;2022-10-13T15:23:38;73.45;;;47.63;;
39486;SDS011;25173;50.430;18.926;2022-10-13T15:26:38;61.45;;;40.33;;
39486;SDS011;25173;50.430;18.926;2022-10-13T15:29:39;72.60;;;47.42;;
39486;SDS011;25173;50.430;18.926;2022-10-13T15:32:40;79.00;;;54.72;;
39486;SDS011;25173;50.430;18.926;2022-10-13T15:35:40;121.35;;;94.25;;
39486;SDS011;25173;50.430;18.926;2022-10-13T15:38:41;107.32;;;77.57;;
39486;SDS011;25173;50.430;18.926;2022-10-13T15:41:41;104.75;;;73.18;;
39486;SDS011;25173;50.430;18.926;2022-10-13T15:44:42;83.30;;;46.75;;
39486;SDS011;25173;50.430;18.926;2022-10-13T15:47:42;83.00;;;52.67;;
39486;SDS011;25173;50.430;18.926;2022-10-13T15:50:43;85.82;;;55.13;;
39486;SDS011;25173;50.430;18.926;2022-10-13T15:53:44;93.28;;;53.65;;
39486;SDS011;25173;50.430;18.926;2022-10-13T15:56:48;78.72;;;47.05;;
39486;SDS011;25173;50.430;18.926;2022-10-13T15:59:48;97.00;;;60.97;;
39486;SDS011;25173;50.430;18.926;2022-10-13T16:02:49;84.25;;;51.75;;
39486;SDS011;25173;50.430;18.926;2022-10-13T16:05:50;80.85;;;51.90;;
39486;SDS011;25173;50.430;18.926;2022-10-13T16:08:51;103.82;;;71.00;;
39486;SDS011;25173;50.430;18.926;2022-10-13T16:11:52;88.65;;;51.72;;
39486;SDS011;25173;50.430;18.926;2022-10-13T16:14:53;86.90;;;56.00;;
39486;SDS011;25173;50.430;18.926;2022-10-13T16:17:54;95.40;;;61.30;;
39486;SDS011;25173;50.430;18.926;2022-10-13T16:20:55;85.40;;;51.17;;
39486;SDS011;25173;50.430;18.926;2022-10-13T16:23:55;95.60;;;54.72;;
39486;SDS011;25173;50.430;18.926;2022-10-13T16:26:58;92.85;;;52.85;;
39486;SDS011;25173;50.430;18.926;2022-10-13T16:30:00;90.68;;;51.20;;
39486;SDS011;25173;50.430;18.926;2022-10-13T16:33:01;88.70;;;49.65;;
39486;SDS011;25173;50.430;18.926;2022-10-13T16:36:03;79.45;;;47.75;;
39486;SDS011;25173;50.430;18.926;2022-10-13T16:39:04;94.65;;;46.67;;
39486;SDS011;25173;50.430;18.926;2022-10-13T16:42:05;145.30;;;82.28;;
39486;SDS011;25173;50.430;18.926;2022-10-13T16:45:05;167.10;;;95.97;;
39486;SDS011;25173;50.430;18.926;2022-10-13T16:48:06;97.50;;;53.78;;
39486;SDS011;25173;50.430;18.926;2022-10-13T16:51:08;163.98;;;102.47;;
39486;SDS011;25173;50.430;18.926;2022-10-13T16:54:14;168.25;;;100.57;;
39486;SDS011;25173;50.430;18.926;2022-10-13T16:57:14;144.13;;;78.43;;
39486;SDS011;25173;50.430;18.926;2022-10-13T17:00:15;124.43;;;81.22;;
39486;SDS011;25173;50.430;18.926;2022-10-13T17:03:15;116.00;;;70.68;;
39486;SDS011;25173;50.430;18.926;2022-10-13T17:06:19;107.95;;;62.92;;
39486;SDS011;25173;50.430;18.926;2022-10-13T17:09:27;133.13;;;73.60;;
39486;SDS011;25173;50.430;18.926;2022-10-13T17:12:28;182.50;;;98.20;;
39486;SDS011;25173;50.430;18.926;2022-10-13T17:15:29;139.48;;;84.93;;
39486;SDS011;25173;50.430;18.926;2022-10-13T17:18:29;144.32;;;82.95;;
39486;SDS011;25173;50.430;18.926;2022-10-13T17:21:30;139.57;;;85.05;;
39486;SDS011;25173;50.430;18.926;2022-10-13T17:24:30;158.55;;;97.50;;
39486;SDS011;25173;50.430;18.926;2022-10-13T17:27:34;195.05;;;106.60;;
39486;SDS011;25173;50.430;18.926;2022-10-13T17:30:36;246.13;;;127.90;;
39486;SDS011;25173;50.430;18.926;2022-10-13T17:33:37;197.40;;;115.10;;
39486;SDS011;25173;50.430;18.926;2022-10-13T17:36:39;134.73;;;82.60;;
39486;SDS011;25173;50.430;18.926;2022-10-13T17:39:43;206.13;;;120.88;;
39486;SDS011;25173;50.430;18.926;2022-10-13T17:42:43;176.13;;;104.53;;
39486;SDS011;25173;50.430;18.926;2022-10-13T17:45:44;200.02;;;110.35;;
39486;SDS011;25173;50.430;18.926;2022-10-13T17:48:44;202.90;;;123.38;;
39486;SDS011;25173;50.430;18.926;2022-10-13T17:51:45;161.02;;;101.05;;
39486;SDS011;25173;50.430;18.926;2022-10-13T17:54:51;162.52;;;96.72;;
39486;SDS011;25173;50.430;18.926;2022-10-13T17:57:51;176.68;;;108.88;;
39486;SDS011;25173;50.430;18.926;2022-10-13T18:00:52;170.32;;;99.03;;
39486;SDS011;25173;50.430;18.926;2022-10-13T18:03:56;158.02;;;95.68;;
39486;SDS011;25173;50.430;18.926;2022-10-13T18:06:59;154.95;;;92.53;;
39486;SDS011;25173;50.430;18.926;2022-10-13T18:10:00;191.52;;;104.45;;
39486;SDS011;25173;50.430;18.926;2022-10-13T18:13:00;181.27;;;105.53;;
39486;SDS011;25173;50.430;18.926;2022-10-13T18:16:06;161.40;;;94.40;;
39486;SDS011;25173;50.430;18.926;2022-10-13T18:19:08;162.50;;;96.45;;
39486;SDS011;25173;50.430;18.926;2022-10-13T18:22:09;205.98;;;109.28;;
39486;SDS011;25173;50.430;18.926;2022-10-13T18:25:10;222.27;;;119.30;;
39486;SDS011;25173;50.430;18.926;2022-10-13T18:28:10;218.60;;;119.22;;
39486;SDS011;25173;50.430;18.926;2022-10-13T18:31:15;250.65;;;132.52;;
39486;SDS011;25173;50.430;18.926;2022-10-13T18:34:17;219.40;;;119.45;;
39486;SDS011;25173;50.430;18.926;2022-10-13T18:37:18;195.32;;;103.85;;
39486;SDS011;25173;50.430;18.926;2022-10-13T18:40:18;155.15;;;93.28;;
39486;SDS011;25173;50.430;18.926;2022-10-13T18:43:19;140.60;;;82.30;;
39486;SDS011;25173;50.430;18.926;2022-10-13T18:46:20;186.13;;;106.55;;
39486;SDS011;25173;50.430;18.926;2022-10-13T18:49:21;181.65;;;107.28;;
39486;SDS011;25173;50.430;18.926;2022-10-13T18:52:29;165.18;;;95.10;;
39486;SDS011;25173;50.430;18.926;2022-10-13T18:55:30;146.10;;;83.50;;
39486;SDS011;25173;50.430;18.926;2022-10-13T18:58:31;162.85;;;94.47;;
39486;SDS011;25173;50.430;18.926;2022-10-13T19:01:32;186.05;;;106.13;;
39486;SDS011;25173;50.430;18.926;2022-10-13T19:04:34;179.30;;;102.53;;
39486;SDS011;25173;50.430;18.926;2022-10-13T19:07:35;141.30;;;84.55;;